CheckWX is a tool to help pilots better visualize weather data.  It is not intended as a substitute for an official pre-flight weather briefing.

23:31:03 UTC

KTWF METAR
Joslin Field Magic Valley Regional Airport Airport
Twin Falls, Idaho, USA
Current

38 mins ago

KTWF 102253Z AUTO 34008KT 10SM CLR 29/06 A3020 RMK AO2 SLP169 T02890056
Observed
Jul-10 @ 22:53 UTC
Wind
  • 340° at 8 KTS
Visibility
10 SM
Flight Rules
VFR
Cloud Levels
  • Clear skies
Temperature
29°C / 84°F
Dewpoint
C / 43°F
Humidity
23%
Altimeter
30.2" Hg
Pressure
1022.72 hPa
Previous

2 hours ago

KTWF 102153Z AUTO 35009KT 10SM CLR 28/06 A3021 RMK AO2 SLP174 T02830056
Observed
Jul-10 @ 21:53 UTC
Wind
  • 350° at 9 KTS
Visibility
10 SM
Flight Rules
VFR
Cloud Levels
  • Clear skies
Temperature
28°C / 82°F
Dewpoint
C / 43°F
Humidity
25%
Altimeter
30.21" Hg
Pressure
1023.02 hPa
Previous

3 hours ago

KTWF 102053Z AUTO 34010KT 10SM CLR 28/06 A3022 RMK AO2 SLP177 T02830061 58000
Observed
Jul-10 @ 20:53 UTC
Wind
  • 340° at 10 KTS
Visibility
10 SM
Flight Rules
VFR
Cloud Levels
  • Clear skies
Temperature
28°C / 82°F
Dewpoint
C / 43°F
Humidity
25%
Altimeter
30.22" Hg
Pressure
1023.42 hPa